- 10/08/2017
- PLUVIOMETRO FUORI USO

sarà ripristinato a fine ferie




Sistema su
RaspberryPi



Stato stazione regolare


Masiera  Masiera


Masiera Torre  Masiera Torre







Raticosa
Muraglione
Fumaiolo

Meteosat

Fulminazioni





Offrimi una birra..

Nessuna attenzione particolare richiesta.    Non ci sono allerte meteo

Weather Underground Storia pagina Testo

Quotidiano Riepilogo per Agosto 23, 2017 Unità:  Metrico    Inglese   Entrambi
« Indietro Day
Avanti Day »
Quotidiano Settimanale mensile Annuale Personalizzato
  Attuale: Max: Min: Media:
Temperatura: 30.6 °C 30.6 °C 13.8 °C 19.1 °C
P.to Rugiada: 17.3 °C 17.3 °C 10.7 °C 12.9 °C
Umidità: 45 % 84 % 43 % 69 %
Vel. Vento: 8.0 km/h 9.7 km/h 0.0 km/h 2.7 km/h
Raffiche: 0.0 km/h 14.5 km/h - -
Vento:East - - SE
Pressione: 1013.8 hPa 1014.4 hPa 1012.4 hPa -
Precipitazioni: 0.0 mm      
Historical Graphs
 
 
Dati di tabella per il Agosto 23, 2017
Tempo Temperatura P.to Rugiada Pressione Vento Vel. Vento Raffiche Umidità Tasso delle precipitazioni (oraria)
00:00 18.3 °C 12.3 °C 1012.8 hPa South 3.2 km/h 4.8 km/h 68 % 0.0 mm
00:05 18.2 °C 12.2 °C 1012.8 hPa SSE 3.2 km/h 4.8 km/h 68 % 0.0 mm
00:10 18.2 °C 12.2 °C 1012.8 hPa South 3.2 km/h   68 % 0.0 mm
00:15 18.1 °C 12.3 °C 1012.8 hPa South 3.2 km/h 4.8 km/h 69 % 0.0 mm
00:20 18.0 °C 12.2 °C 1012.8 hPa South 3.2 km/h   69 % 0.0 mm
00:30 17.6 °C 11.8 °C 1012.8 hPa South 3.2 km/h 3.2 km/h 69 % 0.0 mm
00:35 17.5 °C 11.7 °C 1012.8 hPa South 3.2 km/h   69 % 0.0 mm
00:40 17.4 °C 11.7 °C 1012.8 hPa South 3.2 km/h 4.8 km/h 69 % 0.0 mm
00:45 17.3 °C 11.6 °C 1012.8 hPa South 3.2 km/h   69 % 0.0 mm
00:50 17.3 °C 11.6 °C 1012.8 hPa SSE 3.2 km/h   69 % 0.0 mm
00:55 17.5 °C 11.7 °C 1012.8 hPa South 3.2 km/h   69 % 0.0 mm
01:00 17.3 °C 11.6 °C 1012.8 hPa SSE 3.2 km/h   69 % 0.0 mm
01:05 17.3 °C 11.6 °C 1012.8 hPa SSE 3.2 km/h   69 % 0.0 mm
01:10 16.9 °C 11.4 °C 1012.8 hPa SE 3.2 km/h   70 % 0.0 mm
01:20 16.4 °C 11.1 °C 1012.8 hPa SE 1.6 km/h 3.2 km/h 71 % 0.0 mm
01:25 16.4 °C 11.1 °C 1012.8 hPa SE 1.6 km/h 3.2 km/h 71 % 0.0 mm
01:30 16.2 °C 11.2 °C 1012.8 hPa SSE 1.6 km/h 3.2 km/h 72 % 0.0 mm
01:35 16.3 °C 11.2 °C 1012.8 hPa SE 1.6 km/h 3.2 km/h 72 % 0.0 mm
01:40 16.3 °C 11.2 °C 1012.8 hPa SE 1.6 km/h   72 % 0.0 mm
01:45 16.2 °C 11.3 °C 1012.8 hPa SE 1.6 km/h 1.6 km/h 73 % 0.0 mm
01:50 16.1 °C 11.4 °C 1012.8 hPa SSE 1.6 km/h   74 % 0.0 mm
02:00 16.1 °C 11.4 °C 1012.8 hPa SSE 1.6 km/h   74 % 0.0 mm
02:05 15.9 °C 11.7 °C 1012.8 hPa Calm   1.6 km/h 76 % 0.0 mm
02:15 15.9 °C 11.9 °C 1012.8 hPa Calm     77 % 0.0 mm
02:20 15.9 °C 11.7 °C 1012.8 hPa Calm   1.6 km/h 76 % 0.0 mm
02:25 15.8 °C 11.6 °C 1012.8 hPa SSW 1.6 km/h 3.2 km/h 76 % 0.0 mm
02:30 15.7 °C 11.5 °C 1012.8 hPa South 1.6 km/h 3.2 km/h 76 % 0.0 mm
02:35 15.7 °C 11.5 °C 1012.8 hPa South 1.6 km/h   76 % 0.0 mm
02:40 15.6 °C 11.6 °C 1012.8 hPa South 1.6 km/h 4.8 km/h 77 % 0.0 mm
02:50 15.5 °C 11.5 °C 1012.8 hPa South 3.2 km/h 3.2 km/h 77 % 0.0 mm
02:55 15.6 °C 11.6 °C 1012.8 hPa South 1.6 km/h   77 % 0.0 mm
03:00 15.5 °C 11.5 °C 1012.8 hPa South 3.2 km/h   77 % 0.0 mm
03:10 15.5 °C 11.5 °C 1012.8 hPa South 3.2 km/h   77 % 0.0 mm
03:15 15.5 °C 11.5 °C 1012.8 hPa South 3.2 km/h   77 % 0.0 mm
03:20 15.5 °C 11.5 °C 1012.8 hPa South 3.2 km/h   77 % 0.0 mm
03:25 15.4 °C 11.6 °C 1012.4 hPa South 1.6 km/h   78 % 0.0 mm
03:30 15.5 °C 11.5 °C 1012.8 hPa South 3.2 km/h   77 % 0.0 mm
03:40 15.2 °C 11.4 °C 1012.8 hPa Calm     78 % 0.0 mm
03:45 15.5 °C 11.5 °C 1012.8 hPa South 3.2 km/h   77 % 0.0 mm
03:50 14.9 °C 11.2 °C 1012.4 hPa SSE 1.6 km/h 3.2 km/h 78 % 0.0 mm
03:55 14.8 °C 11.1 °C 1012.4 hPa SE 3.2 km/h 3.2 km/h 78 % 0.0 mm
04:00 14.7 °C 10.9 °C 1012.4 hPa ESE 1.6 km/h 1.6 km/h 78 % 0.0 mm
04:10 14.4 °C 10.9 °C 1012.8 hPa ESE 1.6 km/h 3.2 km/h 79 % 0.0 mm
04:15 14.4 °C 10.8 °C 1012.8 hPa ESE 1.6 km/h   79 % 0.0 mm
04:20 14.4 °C 10.8 °C 1012.8 hPa ESE 3.2 km/h 3.2 km/h 79 % 0.0 mm
04:25 14.4 °C 10.8 °C 1012.8 hPa ESE 3.2 km/h 3.2 km/h 79 % 0.0 mm
04:30 14.3 °C 10.7 °C 1012.8 hPa SE 1.6 km/h 3.2 km/h 79 % 0.0 mm
04:40 14.4 °C 10.8 °C 1012.8 hPa SE 3.2 km/h   79 % 0.0 mm
04:45 14.4 °C 10.8 °C 1012.8 hPa SE 3.2 km/h   79 % 0.0 mm
04:50 14.4 °C 10.8 °C 1012.8 hPa SE 3.2 km/h   79 % 0.0 mm
04:55 14.5 °C 11.3 °C 1012.4 hPa Calm     81 % 0.0 mm
05:00 14.5 °C 11.3 °C 1012.4 hPa Calm     81 % 0.0 mm
05:05 14.4 °C 10.8 °C 1012.8 hPa SE 3.2 km/h   79 % 0.0 mm
05:10 14.2 °C 10.8 °C 1012.8 hPa SE 1.6 km/h 1.6 km/h 80 % 0.0 mm
05:20 14.2 °C 10.8 °C 1012.8 hPa SE 1.6 km/h   80 % 0.0 mm
05:25 14.1 °C 10.9 °C 1012.8 hPa Calm     81 % 0.0 mm
05:35 14.1 °C 10.9 °C 1012.8 hPa Calm     81 % 0.0 mm
05:40 14.1 °C 10.9 °C 1012.8 hPa Calm     81 % 0.0 mm
05:45 14.1 °C 10.9 °C 1012.8 hPa Calm     81 % 0.0 mm
05:50 14.1 °C 10.9 °C 1012.8 hPa Calm     81 % 0.0 mm
05:55 14.1 °C 10.9 °C 1012.8 hPa Calm     81 % 0.0 mm
06:00 14.0 °C 10.8 °C 1012.8 hPa Calm   1.6 km/h 81 % 0.0 mm
06:10 14.0 °C 10.8 °C 1012.8 hPa ENE 1.6 km/h   81 % 0.0 mm
06:15 14.0 °C 10.8 °C 1013.1 hPa ESE 1.6 km/h 3.2 km/h 81 % 0.0 mm
06:20 13.9 °C 10.7 °C 1013.1 hPa SE 1.6 km/h 3.2 km/h 81 % 0.0 mm
06:25 13.9 °C 10.7 °C 1013.1 hPa SE 1.6 km/h   81 % 0.0 mm
06:35 13.9 °C 10.7 °C 1013.1 hPa Calm   3.2 km/h 81 % 0.0 mm
06:40 13.9 °C 10.7 °C 1013.1 hPa SE 1.6 km/h 1.6 km/h 81 % 0.0 mm
06:45 13.9 °C 10.7 °C 1013.1 hPa SE 1.6 km/h 1.6 km/h 81 % 0.0 mm
06:55 13.8 °C 10.8 °C 1013.1 hPa SE 1.6 km/h   82 % 0.0 mm
07:00 13.8 °C 10.8 °C 1013.1 hPa SSE 1.6 km/h   82 % 0.0 mm
07:05 13.8 °C 10.8 °C 1013.1 hPa SSE 1.6 km/h   82 % 0.0 mm
07:10 14.0 °C 11.2 °C 1013.4 hPa Calm     83 % 0.0 mm
07:15 14.0 °C 11.2 °C 1013.4 hPa Calm     83 % 0.0 mm
07:20 14.0 °C 11.2 °C 1013.4 hPa Calm     83 % 0.0 mm
07:25 14.0 °C 11.2 °C 1013.4 hPa Calm     83 % 0.0 mm
07:30 14.0 °C 11.2 °C 1013.4 hPa Calm     83 % 0.0 mm
07:40 14.3 °C 11.5 °C 1013.8 hPa Calm     83 % 0.0 mm
07:45 14.4 °C 11.6 °C 1013.8 hPa Calm     83 % 0.0 mm
07:55 14.9 °C 12.2 °C 1013.8 hPa Calm     84 % 0.0 mm
08:00 14.9 °C 12.2 °C 1013.8 hPa Calm     84 % 0.0 mm
08:10 16.3 °C 13.4 °C 1013.8 hPa South 1.6 km/h 3.2 km/h 83 % 0.0 mm
08:15 14.9 °C 12.2 °C 1013.8 hPa Calm     84 % 0.0 mm
08:20 16.9 °C 13.8 °C 1013.8 hPa NNE 1.6 km/h 3.2 km/h 82 % 0.0 mm
08:25 17.6 °C 14.3 °C 1013.8 hPa ENE 1.6 km/h 3.2 km/h 81 % 0.0 mm
08:35 18.3 °C 14.6 °C 1013.8 hPa South 1.6 km/h 3.2 km/h 79 % 0.0 mm
08:40 18.6 °C 14.5 °C 1013.8 hPa SSW 1.6 km/h 4.8 km/h 77 % 0.0 mm
08:45 18.6 °C 14.5 °C 1013.8 hPa SW 1.6 km/h   77 % 0.0 mm
08:50 18.3 °C 14.6 °C 1013.8 hPa South 1.6 km/h   79 % 0.0 mm
08:55 18.6 °C 14.5 °C 1013.8 hPa SW 1.6 km/h   77 % 0.0 mm
09:00 18.6 °C 14.5 °C 1013.8 hPa SW 1.6 km/h   77 % 0.0 mm
09:10 20.3 °C 14.9 °C 1014.1 hPa SSW 3.2 km/h 4.8 km/h 71 % 0.0 mm
09:15 20.5 °C 15.1 °C 1014.1 hPa South 3.2 km/h 3.2 km/h 71 % 0.0 mm
09:20 20.9 °C 15.3 °C 1014.1 hPa SSE 3.2 km/h 4.8 km/h 70 % 0.0 mm
09:25 21.3 °C 15.2 °C 1014.1 hPa SSE 3.2 km/h 4.8 km/h 68 % 0.0 mm
09:30 21.4 °C 15.0 °C 1014.1 hPa SSE 3.2 km/h   67 % 0.0 mm
09:35 21.8 °C 15.4 °C 1014.1 hPa SSE 3.2 km/h 6.4 km/h 67 % 0.0 mm
09:45 22.1 °C 15.4 °C 1014.1 hPa ESE 3.2 km/h   66 % 0.0 mm
09:50 21.4 °C 15.0 °C 1014.1 hPa SE 3.2 km/h   67 % 0.0 mm
09:55 23.3 °C 15.6 °C 1014.4 hPa ESE 3.2 km/h 4.8 km/h 62 % 0.0 mm
10:00 23.3 °C 15.6 °C 1014.4 hPa SE 3.2 km/h   62 % 0.0 mm
10:10 23.6 °C 15.4 °C 1014.4 hPa NE 4.8 km/h   60 % 0.0 mm
10:15 23.3 °C 15.6 °C 1014.4 hPa SE 3.2 km/h   62 % 0.0 mm
10:25 25.2 °C 15.2 °C 1014.4 hPa ENE 4.8 km/h 11.3 km/h 54 % 0.0 mm
10:30 25.5 °C 15.2 °C 1014.4 hPa ESE 4.8 km/h   53 % 0.0 mm
10:35 25.5 °C 15.2 °C 1014.4 hPa SE 4.8 km/h   53 % 0.0 mm
10:45 26.3 °C 15.3 °C 1014.4 hPa ESE 8.0 km/h   51 % 0.0 mm
10:50 26.9 °C 14.9 °C 1014.4 hPa SE 4.8 km/h 8.0 km/h 48 % 0.0 mm
10:55 27.1 °C 15.1 °C 1014.4 hPa ESE 4.8 km/h 9.7 km/h 48 % 0.0 mm
11:00 27.4 °C 15.1 °C 1014.4 hPa ESE 4.8 km/h   47 % 0.0 mm
11:05 27.2 °C 14.9 °C 1014.4 hPa SE 4.8 km/h   47 % 0.0 mm
11:15 27.8 °C 14.8 °C 1014.4 hPa SE 4.8 km/h   45 % 0.0 mm
11:20 27.8 °C 14.8 °C 1014.4 hPa ESE 8.0 km/h 8.0 km/h 45 % 0.0 mm
11:30 28.1 °C 14.7 °C 1014.4 hPa SE 4.8 km/h 6.4 km/h 44 % 0.0 mm
11:40 28.4 °C 15.3 °C 1014.4 hPa NE 8.0 km/h 11.3 km/h 45 % 0.0 mm
11:45 28.7 °C 15.2 °C 1014.4 hPa SE 8.0 km/h 8.0 km/h 44 % 0.0 mm
11:55 28.8 °C 15.7 °C 1014.4 hPa ENE 3.2 km/h 6.4 km/h 45 % 0.0 mm
12:00 29.1 °C 15.6 °C 1014.4 hPa ESE 3.2 km/h 9.7 km/h 44 % 0.0 mm
12:05 29.1 °C 15.6 °C 1014.4 hPa SE 3.2 km/h   44 % 0.0 mm
12:10 29.2 °C 16.3 °C 1014.4 hPa SE 4.8 km/h 8.0 km/h 46 % 0.0 mm
12:15 29.2 °C 16.4 °C 1014.4 hPa ESE 3.2 km/h   46 % 0.0 mm
12:20 29.5 °C 15.9 °C 1014.4 hPa East 3.2 km/h   44 % 0.0 mm
12:25 29.5 °C 15.9 °C 1014.4 hPa NE 3.2 km/h   44 % 0.0 mm
12:35 29.5 °C 15.9 °C 1014.4 hPa NE 3.2 km/h   44 % 0.0 mm
12:40 29.9 °C 16.3 °C 1014.1 hPa NE 4.8 km/h   44 % 0.0 mm
12:45 29.9 °C 16.3 °C 1014.1 hPa NNE 4.8 km/h   44 % 0.0 mm
12:50 30.1 °C 16.5 °C 1014.1 hPa ESE 4.8 km/h 11.3 km/h 44 % 0.0 mm
12:55 30.2 °C 16.2 °C 1014.1 hPa ESE 8.0 km/h 8.0 km/h 43 % 0.0 mm
13:00 30.2 °C 16.6 °C 1014.1 hPa ENE 8.0 km/h 11.3 km/h 44 % 0.0 mm
13:10 30.5 °C 17.2 °C 1014.1 hPa ESE 4.8 km/h 4.8 km/h 45 % 0.0 mm
13:20 30.2 °C 16.6 °C 1014.1 hPa ENE 8.0 km/h   44 % 0.0 mm
13:25 30.5 °C 17.2 °C 1013.8 hPa ESE 9.7 km/h 14.5 km/h 45 % 0.0 mm
13:30 30.6 °C 17.3 °C 1013.8 hPa East 8.0 km/h   45 % 0.0 mm
meteomasiera
complimenti di Weather Underground - 3.25 mb

Script sviluppato da  Jim McMurry - jmcmurry@mwt.net Adattato per il modello da  Wim van der Kuil - Leuven-Template.eu



meteomasiera trasmette i dati della propria stazione in tempo reale su:



...e altri

free counters